Sukkur Weather



Sukkur's Current Weather

Temprature 40.93o haze

haze

Rain: 0 %

Min Temprature40.93o
Max Temprature40.93o
Humidity42
Wind Speed4.12 m/h
Sun Rise05:43:06
Sun Set19:18:43
Current Time: 24-Jul-2021 16:46:10
Lat/Lon: 27.7052, 68.8574




Sukkur's Geo Location



Sukkur's Weather Forecast

Time Overall Temp Min Temp Max Temp Humidity Wind Speed Rain
24-Jul-2021 (Sat)
17:00:00 few clouds 40.930 38.850 40.930 42 4.23 m/h 0 %
20:00:00 scattered clouds 39.840 37.660 39.840 39 4.54 m/h 0 %
23:00:00 broken clouds 37.450 35.710 37.450 40 5.42 m/h 0 %
25-Jul-2021 (Sun)
02:00:00 clear sky 34.110 34.110 34.110 47 3.91 m/h 0 %
05:00:00 clear sky 32.240 32.240 32.240 56 4.07 m/h 0 %
08:00:00 clear sky 34.950 34.950 34.950 46 3.95 m/h 0 %
11:00:00 clear sky 40.960 40.960 40.960 28 4.06 m/h 0 %
14:00:00 clear sky 44.380 44.380 44.380 22 4.08 m/h 0 %
17:00:00 broken clouds 44.130 44.130 44.130 22 5.66 m/h 0 %
20:00:00 overcast clouds 41.010 41.010 41.010 28 7.04 m/h 0 %
23:00:00 overcast clouds 36.020 36.020 36.020 46 8.27 m/h 0 %
26-Jul-2021 (Mon)
02:00:00 broken clouds 32.900 32.900 32.900 56 7.77 m/h 0 %
05:00:00 broken clouds 31.240 31.240 31.240 62 7.2 m/h 0 %
08:00:00 overcast clouds 32.940 32.940 32.940 55 5.76 m/h 0 %
11:00:00 overcast clouds 39.050 39.050 39.050 37 4.84 m/h 0 %
14:00:00 overcast clouds 42.760 42.760 42.760 28 5.26 m/h 0 %
17:00:00 broken clouds 42.970 42.970 42.970 27 5.92 m/h 0 %
20:00:00 broken clouds 38.940 38.940 38.940 37 8.24 m/h 0 %
23:00:00 overcast clouds 33.460 33.460 33.460 55 9.38 m/h 0 %
27-Jul-2021 (Tue)
02:00:00 overcast clouds 31.470 31.470 31.470 64 7.81 m/h 0 %
05:00:00 overcast clouds 30.420 30.420 30.420 67 6.77 m/h 0 %
08:00:00 overcast clouds 31.890 31.890 31.890 61 6.08 m/h 0 %
11:00:00 overcast clouds 37.340 37.340 37.340 43 5.13 m/h 0 %
14:00:00 overcast clouds 40.900 40.900 40.900 34 5.63 m/h 0 %
17:00:00 overcast clouds 39.830 39.830 39.830 36 6.01 m/h 0 %
20:00:00 overcast clouds 34.690 34.690 34.690 50 9.48 m/h 0 %
23:00:00 overcast clouds 31.820 31.820 31.820 61 7.97 m/h 0 %
28-Jul-2021 (Wed)
02:00:00 overcast clouds 30.480 30.480 30.480 66 6.41 m/h 0 %
05:00:00 overcast clouds 29.960 29.960 29.960 68 5.39 m/h 0 %
08:00:00 broken clouds 31.780 31.780 31.780 61 4.09 m/h 0 %
11:00:00 broken clouds 37.060 37.060 37.060 44 3.42 m/h 0 %
14:00:00 overcast clouds 41.120 41.120 41.120 33 3.2 m/h 0 %
17:00:00 broken clouds 42.430 42.430 42.430 30 4.09 m/h 0 %
20:00:00 broken clouds 36.910 36.910 36.910 44 9.37 m/h 0 %
23:00:00 overcast clouds 33.250 33.250 33.250 56 7.06 m/h 0 %
29-Jul-2021 (Thu)
02:00:00 light rain 31.160 31.160 31.160 64 6.2 m/h 12 %
05:00:00 overcast clouds 30.260 30.260 30.260 67 4.68 m/h 0 %
08:00:00 broken clouds 31.700 31.700 31.700 62 4.28 m/h 0 %
11:00:00 broken clouds 36.710 36.710 36.710 44 3.54 m/h 0 %
14:00:00 overcast clouds 41.290 41.290 41.290 32 4.15 m/h 0 %

Famous Cities (60)